Time;durP1;ratioP1;P1;durP2;ratioP2;P2;SDS_P1;SDS_P2;PMS_P1;PMS_P2;Temp;Humidity;BMP_temperature;BMP_pressure;BME280_temperature;BME280_humidity;BME280_pressure;Samples;Min_cycle;Max_cycle;Signal;HPM_P1;HPM_P2
2022/10/28 00:01:01;;;;;;;24.17;8.20;;;;;;;;;;5070162;28;20033;-66
2022/10/28 00:03:27;;;;;;;15.95;7.70;;;;;;;;;;5102338;28;20478;-66
2022/10/28 00:05:54;;;;;;;15.50;7.57;;;;;;;;;;5102483;28;20076;-66
2022/10/28 00:08:20;;;;;;;23.35;8.55;;;;;;;;;;5068478;28;20433;-66
2022/10/28 00:10:45;;;;;;;17.20;9.07;;;;;;;;;;5068185;28;20101;-66
2022/10/28 00:13:11;;;;;;;23.55;9.45;;;;;;;;;;5068231;28;20048;-66
2022/10/28 00:15:38;;;;;;;19.92;7.93;;;;;;;;;;5068485;28;20036;-66
2022/10/28 00:18:04;;;;;;;23.73;8.25;;;;;;;;;;5071578;28;20051;-66
2022/10/28 00:20:30;;;;;;;20.67;9.38;;;;;;;;;;5072148;28;20081;-66
2022/10/28 00:22:56;;;;;;;22.35;9.23;;;;;;;;;;5072005;28;20053;-66
2022/10/28 00:25:23;;;;;;;15.63;8.68;;;;;;;;;;5055019;28;20165;-66
2022/10/28 00:27:51;;;;;;;17.63;8.43;;;;;;;;;;5072021;28;20407;-66
2022/10/28 00:30:17;;;;;;;15.48;9.48;;;;;;;;;;5055015;28;20383;-66
2022/10/28 00:32:43;;;;;;;17.33;8.52;;;;;;;;;;5071523;28;20037;-66
2022/10/28 00:35:09;;;;;;;18.33;8.93;;;;;;;;;;5105966;28;20682;-66
2022/10/28 00:37:35;;;;;;;20.88;9.20;;;;;;;;;;5072803;28;20082;-66
2022/10/28 00:40:01;;;;;;;17.48;10.20;;;;;;;;;;5105642;28;20094;-66
2022/10/28 00:42:27;;;;;;;17.38;10.73;;;;;;;;;;5071996;28;20036;-66
2022/10/28 00:45:03;;;;;;;23.65;10.48;;;;;;;;;;5071860;28;20434;-66
2022/10/28 00:47:43;;;;;;;21.20;10.77;;;;;;;;;;5071118;28;20052;-66
2022/10/28 00:50:21;;;;;;;26.17;10.60;;;;;;;;;;5071697;28;20435;-66
2022/10/28 00:52:49;;;;;;;23.45;10.65;;;;;;;;;;5088579;28;20044;-66
2022/10/28 00:55:17;;;;;;;18.02;11.07;;;;;;;;;;5071095;28;20443;-66
2022/10/28 00:57:43;;;;;;;22.02;11.27;;;;;;;;;;5071275;28;20044;-66
2022/10/28 01:00:10;;;;;;;25.08;12.15;;;;;;;;;;5071523;28;20487;-66
2022/10/28 01:02:41;;;;;;;26.08;11.27;;;;;;;;;;5071232;28;20036;-66
2022/10/28 01:05:07;;;;;;;22.43;11.73;;;;;;;;;;5071235;28;20106;-66
2022/10/28 01:07:33;;;;;;;19.55;10.73;;;;;;;;;;5070912;28;20348;-66
2022/10/28 01:09:59;;;;;;;19.65;11.32;;;;;;;;;;5070913;28;20043;-66
2022/10/28 01:12:36;;;;;;;17.85;10.73;;;;;;;;;;5071081;28;20503;-66
2022/10/28 01:15:08;;;;;;;18.00;11.05;;;;;;;;;;5072402;28;20040;-66
2022/10/28 01:18:00;;;;;;;20.45;10.88;;;;;;;;;;5070886;28;20040;-66
2022/10/28 01:20:44;;;;;;;19.10;10.82;;;;;;;;;;5071107;28;20091;-66
2022/10/28 01:23:15;;;;;;;21.33;11.80;;;;;;;;;;5070762;28;20052;-66
2022/10/28 01:25:57;;;;;;;22.85;12.25;;;;;;;;;;5070755;28;20036;-66
2022/10/28 01:28:42;;;;;;;24.52;11.35;;;;;;;;;;5069425;28;20044;-66
2022/10/28 01:31:20;;;;;;;22.38;12.02;;;;;;;;;;5070370;28;20048;-66
2022/10/28 01:33:50;;;;;;;23.20;11.90;;;;;;;;;;5070700;28;20081;-66
2022/10/28 01:36:25;;;;;;;22.23;11.82;;;;;;;;;;5070951;28;20475;-66
2022/10/28 01:38:57;;;;;;;19.15;11.82;;;;;;;;;;5071318;28;20158;-66
2022/10/28 01:41:26;;;;;;;25.73;12.93;;;;;;;;;;5072158;28;20055;-66
2022/10/28 01:43:56;;;;;;;22.15;12.35;;;;;;;;;;5070403;28;20079;-66
2022/10/28 01:46:28;;;;;;;25.25;13.13;;;;;;;;;;5070185;28;20047;-66
2022/10/28 01:48:57;;;;;;;26.23;13.65;;;;;;;;;;5070212;28;20078;-66
2022/10/28 01:51:25;;;;;;;22.40;12.32;;;;;;;;;;5070463;28;20041;-66
2022/10/28 01:53:54;;;;;;;20.98;12.43;;;;;;;;;;5069951;28;20093;-66
2022/10/28 01:56:22;;;;;;;22.05;12.13;;;;;;;;;;5070124;28;20132;-66
2022/10/28 01:58:49;;;;;;;27.40;12.25;;;;;;;;;;5070002;28;20067;-66
2022/10/28 02:01:16;;;;;;;27.88;12.13;;;;;;;;;;5071285;28;20089;-66
2022/10/28 02:03:42;;;;;;;22.83;13.48;;;;;;;;;;5070197;28;20387;-66
2022/10/28 02:06:14;;;;;;;27.13;13.75;;;;;;;;;;5070220;28;20044;-66
2022/10/28 02:08:40;;;;;;;;;;;;;;;;;;5071631;28;20044;-66
2022/10/28 02:11:30;;;;;;;28.15;12.88;;;;;;;;;;5069820;28;19939;-66
2022/10/28 02:14:11;;;;;;;25.70;13.77;;;;;;;;;;5045343;28;20477;-66
2022/10/28 02:16:37;;;;;;;26.38;13.48;;;;;;;;;;5069587;28;20048;-66
2022/10/28 02:19:11;;;;;;;26.73;14.05;;;;;;;;;;5069998;28;20571;-66
2022/10/28 02:21:54;;;;;;;24.80;13.40;;;;;;;;;;5069821;28;20044;-66
2022/10/28 02:24:23;;;;;;;23.27;13.70;;;;;;;;;;5069878;28;20063;-66
2022/10/28 02:26:56;;;;;;;28.27;13.52;;;;;;;;;;5069792;28;20079;-66
2022/10/28 02:29:25;;;;;;;30.08;13.85;;;;;;;;;;5070604;28;20032;-66
2022/10/28 02:32:17;;;;;;;27.67;12.52;;;;;;;;;;5070912;28;20041;-66
2022/10/28 02:34:43;;;;;;;;;;;;;;;;;;5070903;28;20052;-66
2022/10/28 02:37:15;;;;;;;26.58;13.38;;;;;;;;;;5103068;28;20374;-66
2022/10/28 02:39:43;;;;;;;22.38;14.60;;;;;;;;;;5068954;28;20075;-66
2022/10/28 02:42:17;;;;;;;28.17;14.20;;;;;;;;;;5071075;28;20074;-66
2022/10/28 02:44:48;;;;;;;24.92;13.35;;;;;;;;;;5068941;28;20400;-66
2022/10/28 02:47:18;;;;;;;27.40;14.00;;;;;;;;;;5103279;28;20123;-66
2022/10/28 02:49:46;;;;;;;22.02;13.85;;;;;;;;;;5069221;28;20052;-66
2022/10/28 02:52:12;;;;;;;32.17;14.70;;;;;;;;;;5069310;28;20495;-66
2022/10/28 02:54:40;;;;;;;26.02;15.23;;;;;;;;;;5069570;28;20043;-66
2022/10/28 02:57:12;;;;;;;28.05;14.20;;;;;;;;;;5069192;28;20044;-66
2022/10/28 02:59:38;;;;;;;;;;;;;;;;;;5069277;28;20040;-66
2022/10/28 03:02:04;;;;;;;22.92;14.23;;;;;;;;;;5103151;28;20274;-66
2022/10/28 03:04:30;;;;;;;24.85;13.25;;;;;;;;;;5069228;28;20051;-66
2022/10/28 03:06:56;;;;;;;32.03;13.65;;;;;;;;;;5068494;28;20423;-66
2022/10/28 03:09:22;;;;;;;29.48;14.00;;;;;;;;;;5070467;28;20451;-66
2022/10/28 03:11:48;;;;;;;27.23;13.75;;;;;;;;;;5069191;28;20132;-66
2022/10/28 03:14:14;;;;;;;34.67;14.80;;;;;;;;;;5068978;28;20119;-66
2022/10/28 03:16:41;;;;;;;26.45;14.55;;;;;;;;;;5069029;28;20048;-66
2022/10/28 03:19:06;;;;;;;24.27;12.52;;;;;;;;;;5068925;28;20090;-66
2022/10/28 03:21:32;;;;;;;28.17;14.38;;;;;;;;;;5068846;28;20433;-66
2022/10/28 03:23:59;;;;;;;26.95;14.57;;;;;;;;;;5069162;28;20052;-66
2022/10/28 03:26:25;;;;;;;23.08;14.23;;;;;;;;;;5051919;28;20119;-66
2022/10/28 03:28:51;;;;;;;27.73;13.98;;;;;;;;;;5068417;28;20157;-66
2022/10/28 03:31:17;;;;;;;23.92;13.25;;;;;;;;;;5068915;28;20554;-66
2022/10/28 03:33:43;;;;;;;25.00;13.90;;;;;;;;;;5085915;28;20043;-66
2022/10/28 03:36:09;;;;;;;24.98;14.45;;;;;;;;;;5068841;28;20117;-66
2022/10/28 03:38:35;;;;;;;29.58;14.07;;;;;;;;;;5068658;28;20041;-66
2022/10/28 03:41:01;;;;;;;23.75;14.05;;;;;;;;;;5068996;28;20116;-66
2022/10/28 03:43:27;;;;;;;22.98;13.73;;;;;;;;;;5068710;28;20036;-66
2022/10/28 03:45:53;;;;;;;28.48;12.98;;;;;;;;;;5068724;28;20051;-66
2022/10/28 03:48:19;;;;;;;31.55;13.45;;;;;;;;;;5069058;28;20036;-66
2022/10/28 03:50:45;;;;;;;27.40;13.25;;;;;;;;;;5067987;28;20209;-66
2022/10/28 03:53:11;;;;;;;24.83;13.43;;;;;;;;;;5072627;28;20069;-66
2022/10/28 03:55:37;;;;;;;23.92;12.95;;;;;;;;;;5072592;28;20066;-66
2022/10/28 03:58:03;;;;;;;28.58;13.25;;;;;;;;;;5073950;28;20090;-66
2022/10/28 04:00:29;;;;;;;29.75;12.75;;;;;;;;;;5072281;28;20048;-66
2022/10/28 04:02:55;;;;;;;25.30;12.82;;;;;;;;;;5072505;28;20124;-66
2022/10/28 04:05:21;;;;;;;30.45;13.15;;;;;;;;;;5073994;28;20395;-66
2022/10/28 04:07:47;;;;;;;27.02;12.50;;;;;;;;;;5071710;28;20098;-66
2022/10/28 04:10:13;;;;;;;24.65;12.10;;;;;;;;;;5072386;28;20376;-66
2022/10/28 04:12:39;;;;;;;22.45;13.13;;;;;;;;;;5072185;28;20048;-66
2022/10/28 04:15:05;;;;;;;27.25;13.48;;;;;;;;;;5071866;28;20049;-66
2022/10/28 04:17:33;;;;;;;24.10;12.27;;;;;;;;;;5072184;28;20583;-66
2022/10/28 04:19:59;;;;;;;28.95;12.90;;;;;;;;;;5072223;28;20036;-66
2022/10/28 04:22:26;;;;;;;21.33;12.38;;;;;;;;;;5072149;28;20086;-66
2022/10/28 04:24:53;;;;;;;22.23;12.18;;;;;;;;;;5071894;28;20048;-66
2022/10/28 04:27:19;;;;;;;27.50;12.57;;;;;;;;;;5073044;28;20048;-66
2022/10/28 04:29:45;;;;;;;29.65;12.88;;;;;;;;;;5071486;28;20040;-66
2022/10/28 04:32:11;;;;;;;32.90;13.27;;;;;;;;;;5071849;28;20056;-66
2022/10/28 04:34:37;;;;;;;27.75;12.05;;;;;;;;;;5071961;28;20147;-66
2022/10/28 04:37:03;;;;;;;22.98;13.05;;;;;;;;;;5072386;28;20461;-66
2022/10/28 04:39:29;;;;;;;21.50;12.60;;;;;;;;;;5088803;28;20074;-66
2022/10/28 04:41:56;;;;;;;24.17;12.18;;;;;;;;;;5071930;28;20048;-66
2022/10/28 04:44:22;;;;;;;24.52;13.32;;;;;;;;;;5071180;28;20048;-66
2022/10/28 04:46:48;;;;;;;28.00;14.18;;;;;;;;;;5072787;28;20044;-66
2022/10/28 04:49:14;;;;;;;29.20;13.63;;;;;;;;;;5071695;28;20120;-66
2022/10/28 04:51:40;;;;;;;24.67;12.90;;;;;;;;;;5071241;28;20036;-66
2022/10/28 04:54:06;;;;;;;24.95;13.00;;;;;;;;;;5071261;28;20037;-66
2022/10/28 04:56:32;;;;;;;21.70;12.40;;;;;;;;;;5071341;28;20060;-66
2022/10/28 04:58:58;;;;;;;25.80;13.00;;;;;;;;;;5070948;28;20461;-66
2022/10/28 05:01:24;;;;;;;23.15;12.30;;;;;;;;;;5072943;28;20051;-66
2022/10/28 05:03:50;;;;;;;30.55;13.15;;;;;;;;;;5071264;28;20084;-66
2022/10/28 05:06:16;;;;;;;26.83;12.27;;;;;;;;;;5064304;28;20053;-66
2022/10/28 05:08:42;;;;;;;19.70;11.80;;;;;;;;;;5070450;28;20051;-67
2022/10/28 05:11:08;;;;;;;27.48;13.35;;;;;;;;;;5072370;28;20085;-67
2022/10/28 05:13:34;;;;;;;25.33;11.85;;;;;;;;;;5070009;28;20177;-67
2022/10/28 05:16:00;;;;;;;24.98;12.73;;;;;;;;;;5070913;28;20040;-67
2022/10/28 05:18:26;;;;;;;25.13;10.98;;;;;;;;;;5070738;28;20120;-67
2022/10/28 05:20:54;;;;;;;27.98;12.98;;;;;;;;;;5070011;28;20137;-66
2022/10/28 05:23:23;;;;;;;24.02;11.90;;;;;;;;;;5070394;28;20051;-67
2022/10/28 05:25:49;;;;;;;25.83;12.07;;;;;;;;;;5070506;28;20414;-66
2022/10/28 05:28:16;;;;;;;28.88;12.48;;;;;;;;;;5070231;28;20514;-66
2022/10/28 05:30:42;;;;;;;33.30;12.32;;;;;;;;;;5071828;28;20048;-66
2022/10/28 05:33:09;;;;;;;23.38;12.25;;;;;;;;;;5070850;28;20048;-66
2022/10/28 05:35:36;;;;;;;28.75;11.98;;;;;;;;;;5071719;28;20040;-66
2022/10/28 05:38:02;;;;;;;24.05;11.50;;;;;;;;;;5070829;28;20663;-66
2022/10/28 05:40:31;;;;;;;20.25;11.85;;;;;;;;;;5069527;28;20055;-68
2022/10/28 05:42:57;;;;;;;25.42;11.98;;;;;;;;;;5068795;28;20053;-68
2022/10/28 05:45:23;;;;;;;22.65;12.00;;;;;;;;;;5070206;28;20509;-68
2022/10/28 05:47:49;;;;;;;23.60;11.48;;;;;;;;;;5069452;28;20116;-67
2022/10/28 05:50:16;;;;;;;28.38;11.68;;;;;;;;;;5069070;28;20055;-66
2022/10/28 05:52:49;;;;;;;28.00;11.48;;;;;;;;;;5069911;28;20041;-65
2022/10/28 05:55:18;;;;;;;25.70;11.30;;;;;;;;;;5070648;28;20040;-67
2022/10/28 05:57:44;;;;;;;25.80;12.70;;;;;;;;;;5069081;28;20052;-68
2022/10/28 06:00:11;;;;;;;24.63;11.70;;;;;;;;;;5069606;28;20052;-67
2022/10/28 06:02:37;;;;;;;31.70;12.13;;;;;;;;;;5069352;28;20090;-67
2022/10/28 06:05:03;;;;;;;24.60;11.68;;;;;;;;;;5069511;28;20136;-68
2022/10/28 06:07:29;;;;;;;26.73;11.27;;;;;;;;;;5069004;28;20048;-68
2022/10/28 06:09:55;;;;;;;24.73;11.95;;;;;;;;;;5069540;28;20044;-67
2022/10/28 06:12:21;;;;;;;24.40;11.07;;;;;;;;;;5069766;28;20055;-66
2022/10/28 06:14:47;;;;;;;23.05;13.05;;;;;;;;;;5056274;28;20048;-65
2022/10/28 06:17:13;;;;;;;26.70;12.82;;;;;;;;;;5068191;28;20456;-65
2022/10/28 06:19:39;;;;;;;24.98;11.77;;;;;;;;;;5068448;28;20042;-65
2022/10/28 06:22:05;;;;;;;29.58;13.43;;;;;;;;;;5068179;28;20047;-66
2022/10/28 06:24:31;;;;;;;22.98;11.88;;;;;;;;;;5070172;28;20044;-66
2022/10/28 06:26:57;;;;;;;28.08;11.43;;;;;;;;;;5066254;28;20130;-65
2022/10/28 06:29:23;;;;;;;25.23;11.00;;;;;;;;;;5068511;28;20045;-65
2022/10/28 06:31:50;;;;;;;22.70;11.30;;;;;;;;;;5063610;28;20153;-65
2022/10/28 06:34:16;;;;;;;22.80;10.43;;;;;;;;;;5053900;28;20036;-65
2022/10/28 06:36:42;;;;;;;23.33;10.50;;;;;;;;;;5067643;28;20055;-65
2022/10/28 06:39:08;;;;;;;19.70;10.85;;;;;;;;;;5069379;28;20062;-66
2022/10/28 06:41:35;;;;;;;19.08;10.10;;;;;;;;;;5068342;28;20620;-67
2022/10/28 06:44:01;;;;;;;20.73;10.55;;;;;;;;;;5068303;28;20119;-64
2022/10/28 06:46:28;;;;;;;19.65;10.85;;;;;;;;;;5068558;28;20375;-63
2022/10/28 06:48:54;;;;;;;23.35;10.15;;;;;;;;;;5069394;28;20037;-63
2022/10/28 06:51:20;;;;;;;27.33;10.95;;;;;;;;;;5069468;28;20425;-59
2022/10/28 06:53:50;;;;;;;23.23;9.82;;;;;;;;;;5068136;28;20036;-60
2022/10/28 06:56:16;;;;;;;50.55;13.75;;;;;;;;;;5067523;28;20040;-60
2022/10/28 06:58:42;;;;;;;18.05;9.57;;;;;;;;;;5068701;28;20075;-65
2022/10/28 07:01:08;;;;;;;18.15;10.70;;;;;;;;;;5069503;28;20417;-67
2022/10/28 07:03:34;;;;;;;20.08;9.77;;;;;;;;;;5068654;28;20673;-65
2022/10/28 07:06:00;;;;;;;25.33;10.48;;;;;;;;;;5069138;28;20113;-67
2022/10/28 07:08:27;;;;;;;22.73;10.35;;;;;;;;;;5069312;28;20127;-68
2022/10/28 07:10:57;;;;;;;22.67;9.77;;;;;;;;;;5068876;28;20041;-68
2022/10/28 07:13:23;;;;;;;19.25;10.48;;;;;;;;;;5069319;28;20053;-67
2022/10/28 07:15:53;;;;;;;17.67;9.65;;;;;;;;;;5059854;28;20540;-66
2022/10/28 07:18:19;;;;;;;22.67;9.52;;;;;;;;;;5068452;28;20048;-67
2022/10/28 07:20:45;;;;;;;19.98;9.10;;;;;;;;;;5069074;28;20052;-67
2022/10/28 07:23:11;;;;;;;23.27;9.75;;;;;;;;;;5069401;28;20131;-67
2022/10/28 07:25:38;;;;;;;20.02;9.82;;;;;;;;;;5069767;28;20595;-67
2022/10/28 07:28:04;;;;;;;18.23;9.25;;;;;;;;;;5072665;28;20056;-67
2022/10/28 07:30:31;;;;;;;23.27;9.60;;;;;;;;;;5073203;28;20879;-68
2022/10/28 07:33:00;;;;;;;20.08;9.90;;;;;;;;;;5073035;28;20032;-68
2022/10/28 07:35:30;;;;;;;27.42;10.10;;;;;;;;;;5071519;28;20039;-68
2022/10/28 07:37:57;;;;;;;21.48;9.32;;;;;;;;;;5072389;28;20040;-67
2022/10/28 07:40:23;;;;;;;17.27;9.68;;;;;;;;;;5072111;28;20048;-67
2022/10/28 07:42:49;;;;;;;18.85;9.77;;;;;;;;;;5073084;28;20040;-69
2022/10/28 07:45:16;;;;;;;19.52;9.57;;;;;;;;;;5071488;28;20147;-67
2022/10/28 07:47:42;;;;;;;23.83;10.38;;;;;;;;;;5072082;28;20048;-67
2022/10/28 07:50:08;;;;;;;21.85;10.52;;;;;;;;;;5072719;28;20127;-68
2022/10/28 07:52:35;;;;;;;17.83;9.55;;;;;;;;;;5072704;28;20053;-67
2022/10/28 07:55:01;;;;;;;20.25;9.88;;;;;;;;;;5072071;28;20044;-68
2022/10/28 07:57:27;;;;;;;20.75;9.25;;;;;;;;;;5070879;28;20052;-68
2022/10/28 07:59:53;;;;;;;18.75;8.98;;;;;;;;;;5072553;28;20041;-68
2022/10/28 08:02:23;;;;;;;25.50;9.52;;;;;;;;;;5072153;28;20135;-69
2022/10/28 08:04:49;;;;;;;23.25;8.65;;;;;;;;;;5072190;28;20045;-67
2022/10/28 08:07:15;;;;;;;20.30;9.27;;;;;;;;;;5070524;28;20051;-70
2022/10/28 08:09:41;;;;;;;19.80;8.90;;;;;;;;;;5070969;28;20593;-69
2022/10/28 08:12:08;;;;;;;19.55;9.95;;;;;;;;;;5072307;28;20067;-68
2022/10/28 08:14:34;;;;;;;20.42;9.48;;;;;;;;;;5072002;28;20056;-68
2022/10/28 08:17:00;;;;;;;18.88;9.43;;;;;;;;;;5070577;28;20075;-68
2022/10/28 08:19:26;;;;;;;23.42;9.63;;;;;;;;;;5069713;28;20138;-68
2022/10/28 08:21:52;;;;;;;19.63;9.15;;;;;;;;;;5071852;28;20305;-68
2022/10/28 08:24:18;;;;;;;24.35;9.45;;;;;;;;;;5070199;28;20051;-68
2022/10/28 08:26:44;;;;;;;22.08;10.75;;;;;;;;;;5069649;28;20044;-69
2022/10/28 08:29:11;;;;;;;23.25;9.27;;;;;;;;;;5070196;28;20094;-71
2022/10/28 08:31:37;;;;;;;18.15;9.65;;;;;;;;;;5053685;28;20032;-68
2022/10/28 08:34:03;;;;;;;24.17;9.07;;;;;;;;;;5064133;28;20633;-63
2022/10/28 08:36:29;;;;;;;25.95;9.20;;;;;;;;;;5072322;28;20075;-68
2022/10/28 08:38:58;;;;;;;27.63;9.93;;;;;;;;;;5069881;28;20052;-66
2022/10/28 08:41:34;;;;;;;19.23;9.07;;;;;;;;;;5073284;28;20047;-66
2022/10/28 08:44:07;;;;;;;24.00;8.93;;;;;;;;;;5071755;28;20040;-67
2022/10/28 08:46:42;;;;;;;28.25;10.18;;;;;;;;;;5075186;28;20055;-67
2022/10/28 08:49:11;;;;;;;15.38;9.43;;;;;;;;;;5071814;28;20047;-68
2022/10/28 08:51:40;;;;;;;21.67;8.77;;;;;;;;;;5072103;28;20032;-68
2022/10/28 08:54:12;;;;;;;16.60;8.15;;;;;;;;;;5071223;28;20040;-68
2022/10/28 08:56:46;;;;;;;23.13;8.05;;;;;;;;;;5071314;28;20047;-68
2022/10/28 08:59:24;;;;;;;17.40;7.32;;;;;;;;;;5069846;28;20047;-69
2022/10/28 09:02:02;;;;;;;22.60;8.10;;;;;;;;;;5073602;28;20052;-68
2022/10/28 09:04:32;;;;;;;14.80;6.63;;;;;;;;;;5075871;28;20094;-69
2022/10/28 09:06:58;;;;;;;18.10;7.53;;;;;;;;;;5075640;28;20452;-68
2022/10/28 09:09:24;;;;;;;17.95;6.95;;;;;;;;;;5069086;28;20040;-68
2022/10/28 09:11:50;;;;;;;15.98;6.88;;;;;;;;;;5068540;28;20055;-68
2022/10/28 09:14:22;;;;;;;16.52;7.28;;;;;;;;;;5070056;28;20045;-68
2022/10/28 09:16:50;;;;;;;17.02;7.85;;;;;;;;;;5072466;28;20526;-68
2022/10/28 09:19:28;;;;;;;17.95;7.03;;;;;;;;;;5070672;28;20048;-68
2022/10/28 09:21:58;;;;;;;15.55;7.18;;;;;;;;;;5094132;28;20111;-69
2022/10/28 09:24:43;;;;;;;23.75;6.63;;;;;;;;;;5070315;28;20070;-68
2022/10/28 09:27:09;;;;;;;16.92;6.65;;;;;;;;;;5071955;28;20036;-67
2022/10/28 09:29:38;;;;;;;17.20;6.57;;;;;;;;;;5070236;28;20072;-64
2022/10/28 09:32:14;;;;;;;14.55;6.20;;;;;;;;;;5069980;28;20089;-64
2022/10/28 09:34:40;;;;;;;17.40;6.78;;;;;;;;;;5071036;28;20047;-66
2022/10/28 09:37:25;;;;;;;20.70;6.40;;;;;;;;;;5070006;28;20391;-65
2022/10/28 09:40:00;;;;;;;22.42;6.72;;;;;;;;;;5070321;28;20079;-64
2022/10/28 09:42:30;;;;;;;20.63;6.45;;;;;;;;;;5070179;28;20036;-64
2022/10/28 09:45:02;;;;;;;18.85;7.32;;;;;;;;;;5071026;28;20044;-64
2022/10/28 09:47:28;;;;;;;;;;;;;;;;;;5070452;28;20449;-67
2022/10/28 09:49:56;;;;;;;19.83;7.10;;;;;;;;;;5066771;28;19998;-65
2022/10/28 09:52:24;;;;;;;15.85;7.28;;;;;;;;;;5070293;28;20447;-64
2022/10/28 09:54:51;;;;;;;17.80;6.38;;;;;;;;;;5070553;28;20036;-63
2022/10/28 09:57:18;;;;;;;17.98;5.88;;;;;;;;;;5070337;28;20227;-63
2022/10/28 09:59:44;;;;;;;23.83;6.85;;;;;;;;;;5070192;28;20063;-63
2022/10/28 10:02:27;;;;;;;18.80;6.70;;;;;;;;;;5068653;28;20090;-65
2022/10/28 10:04:54;;;;;;;16.55;6.70;;;;;;;;;;5070031;28;20032;-63
2022/10/28 10:07:29;;;;;;;19.13;6.32;;;;;;;;;;5069969;28;20048;-63
2022/10/28 10:09:57;;;;;;;17.67;6.45;;;;;;;;;;5068857;28;20048;-63
2022/10/28 10:12:24;;;;;;;18.77;6.10;;;;;;;;;;5069887;28;20075;-63
2022/10/28 10:14:51;;;;;;;16.88;6.32;;;;;;;;;;5070413;28;20043;-63
2022/10/28 10:17:31;;;;;;;20.08;6.82;;;;;;;;;;5069197;28;20094;-62
2022/10/28 10:19:58;;;;;;;17.50;7.00;;;;;;;;;;5069328;28;20503;-62
2022/10/28 10:22:32;;;;;;;19.45;6.70;;;;;;;;;;5067912;28;20099;-63
2022/10/28 10:24:58;;;;;;;11.93;5.72;;;;;;;;;;5069358;28;20098;-63
2022/10/28 10:27:25;;;;;;;17.25;6.68;;;;;;;;;;5069627;28;20170;-63
2022/10/28 10:29:52;;;;;;;17.90;6.43;;;;;;;;;;5069268;28;20060;-63
2022/10/28 10:32:20;;;;;;;18.00;6.32;;;;;;;;;;5069621;28;20040;-64
2022/10/28 10:35:01;;;;;;;16.98;6.72;;;;;;;;;;5051782;28;20036;-66
2022/10/28 10:37:29;;;;;;;17.45;6.22;;;;;;;;;;5051713;28;20048;-66
2022/10/28 10:40:00;;;;;;;16.30;6.43;;;;;;;;;;5068814;28;20124;-66
2022/10/28 10:42:26;;;;;;;18.75;6.03;;;;;;;;;;5068486;28;20039;-66
2022/10/28 10:45:01;;;;;;;19.27;6.70;;;;;;;;;;5070086;28;20451;-65
2022/10/28 10:47:27;;;;;;;17.63;6.20;;;;;;;;;;5068005;28;20037;-66
2022/10/28 10:50:13;;;;;;;17.35;6.32;;;;;;;;;;5069849;28;20055;-66
2022/10/28 10:52:47;;;;;;;21.58;6.78;;;;;;;;;;5061187;28;20498;-66
2022/10/28 10:55:21;;;;;;;14.68;6.70;;;;;;;;;;5068747;28;20036;-66
2022/10/28 10:57:48;;;;;;;18.05;6.05;;;;;;;;;;5050429;28;20042;-66
2022/10/28 11:00:20;;;;;;;15.88;5.82;;;;;;;;;;5064679;28;20411;-66
2022/10/28 11:02:46;;;;;;;;;;;;;;;;;;5069131;28;20059;-66
2022/10/28 11:05:19;;;;;;;21.27;6.40;;;;;;;;;;5070228;28;19920;-66
2022/10/28 11:07:47;;;;;;;16.90;5.88;;;;;;;;;;5069405;28;20044;-66
2022/10/28 11:10:29;;;;;;;16.90;6.43;;;;;;;;;;5068122;28;20469;-65
2022/10/28 11:12:55;;;;;;;;;;;;;;;;;;5062896;28;20048;-65
2022/10/28 11:15:23;;;;;;;22.70;6.97;;;;;;;;;;5068039;28;20012;-64
2022/10/28 11:17:57;;;;;;;21.67;6.63;;;;;;;;;;5049886;28;20073;-64
2022/10/28 11:20:24;;;;;;;20.80;6.72;;;;;;;;;;5067446;28;20041;-63
2022/10/28 11:23:02;;;;;;;19.90;6.72;;;;;;;;;;5069593;28;20080;-63
2022/10/28 11:25:28;;;;;;;20.10;5.97;;;;;;;;;;5069843;28;20155;-64
2022/10/28 11:27:57;;;;;;;17.75;7.05;;;;;;;;;;5069421;28;20037;-63
2022/10/28 11:30:31;;;;;;;17.63;6.95;;;;;;;;;;5068721;28;20540;-64
2022/10/28 11:32:57;;;;;;;17.95;7.38;;;;;;;;;;5066959;28;20371;-64
2022/10/28 11:35:42;;;;;;;21.73;7.30;;;;;;;;;;5069789;28;20033;-63
2022/10/28 11:38:24;;;;;;;21.95;6.90;;;;;;;;;;5068949;28;20044;-65
2022/10/28 11:40:52;;;;;;;20.23;6.47;;;;;;;;;;5060750;28;20048;-62
2022/10/28 11:43:28;;;;;;;19.67;7.53;;;;;;;;;;5069881;28;20096;-64
2022/10/28 11:45:54;;;;;;;22.38;6.57;;;;;;;;;;5049543;28;20200;-64
2022/10/28 11:48:26;;;;;;;14.00;6.28;;;;;;;;;;5056339;28;20074;-64
2022/10/28 11:50:52;;;;;;;;;;;;;;;;;;5070176;28;20044;-64
2022/10/28 11:53:26;;;;;;;20.17;6.18;;;;;;;;;;5069616;28;19920;-64
2022/10/28 11:56:07;;;;;;;25.73;6.78;;;;;;;;;;5068084;28;20054;-64
2022/10/28 11:58:48;;;;;;;20.50;6.55;;;;;;;;;;5069936;28;20045;-64
2022/10/28 12:01:30;;;;;;;20.35;5.90;;;;;;;;;;5069154;28;20047;-64
2022/10/28 12:04:02;;;;;;;19.40;5.93;;;;;;;;;;5069847;28;20028;-64
2022/10/28 12:06:37;;;;;;;14.80;5.85;;;;;;;;;;5069643;28;20416;-64
2022/10/28 12:09:03;;;;;;;19.33;6.32;;;;;;;;;;5068117;28;20044;-64
2022/10/28 12:11:36;;;;;;;16.20;5.78;;;;;;;;;;5067804;28;20375;-64
2022/10/28 12:14:02;;;;;;;15.07;6.03;;;;;;;;;;5052299;28;20053;-64
2022/10/28 12:16:29;;;;;;;22.60;5.88;;;;;;;;;;5060453;28;20507;-65
2022/10/28 12:18:55;;;;;;;18.30;6.50;;;;;;;;;;5071944;28;20036;-64
2022/10/28 12:21:24;;;;;;;24.45;6.30;;;;;;;;;;5071323;28;20134;-64
2022/10/28 12:23:51;;;;;;;14.18;6.15;;;;;;;;;;5073033;28;20044;-64
2022/10/28 12:26:19;;;;;;;14.32;5.93;;;;;;;;;;5073245;28;20044;-64
2022/10/28 12:28:48;;;;;;;20.65;6.45;;;;;;;;;;5071019;28;20044;-64
2022/10/28 12:31:20;;;;;;;14.13;5.60;;;;;;;;;;5071771;28;20044;-64
2022/10/28 12:33:48;;;;;;;21.00;5.80;;;;;;;;;;5073118;28;20037;-64
2022/10/28 12:36:34;;;;;;;19.13;6.30;;;;;;;;;;5072391;28;20040;-64
2022/10/28 12:39:02;;;;;;;16.45;5.82;;;;;;;;;;5054874;28;20052;-64
2022/10/28 12:41:48;;;;;;;16.10;5.70;;;;;;;;;;5072860;28;20036;-64
2022/10/28 12:44:25;;;;;;;19.45;5.38;;;;;;;;;;5070857;28;20037;-64
2022/10/28 12:46:51;;;;;;;17.55;6.28;;;;;;;;;;5071049;28;20182;-65
2022/10/28 12:49:38;;;;;;;19.52;5.88;;;;;;;;;;5071006;28;20082;-65
2022/10/28 12:52:19;;;;;;;15.90;5.55;;;;;;;;;;5071646;28;20101;-65
2022/10/28 12:55:08;;;;;;;17.77;5.83;;;;;;;;;;5072563;28;20048;-64
2022/10/28 12:57:36;;;;;;;19.25;6.25;;;;;;;;;;5061954;28;20061;-64
2022/10/28 13:00:05;;;;;;;16.30;5.90;;;;;;;;;;5071998;28;20040;-64
2022/10/28 13:02:34;;;;;;;17.35;5.88;;;;;;;;;;5072732;28;20060;-64
2022/10/28 13:05:02;;;;;;;19.08;6.05;;;;;;;;;;5071960;28;20036;-64
2022/10/28 13:07:47;;;;;;;19.73;6.18;;;;;;;;;;5071763;28;20059;-64
2022/10/28 13:10:19;;;;;;;15.60;6.57;;;;;;;;;;5052231;28;20124;-65
2022/10/28 13:12:45;;;;;;;14.27;5.57;;;;;;;;;;5059661;28;20252;-64
2022/10/28 13:15:14;;;;;;;15.70;6.22;;;;;;;;;;5071733;28;20285;-64
2022/10/28 13:17:40;;;;;;;18.90;6.15;;;;;;;;;;5072046;28;20124;-64
2022/10/28 13:20:06;;;;;;;17.95;5.95;;;;;;;;;;5070539;28;20045;-64
2022/10/28 13:22:45;;;;;;;17.08;6.70;;;;;;;;;;5071739;28;20052;-64
2022/10/28 13:25:27;;;;;;;15.80;5.78;;;;;;;;;;5070509;28;20040;-64
2022/10/28 13:27:59;;;;;;;20.13;6.05;;;;;;;;;;5071631;28;20048;-64
2022/10/28 13:30:26;;;;;;;16.92;6.40;;;;;;;;;;5072057;28;20041;-65
2022/10/28 13:33:04;;;;;;;18.60;6.70;;;;;;;;;;5071462;28;20079;-65
2022/10/28 13:35:30;;;;;;;20.02;6.65;;;;;;;;;;5071485;28;20043;-65
2022/10/28 13:37:58;;;;;;;15.25;6.03;;;;;;;;;;5071958;28;20494;-65
2022/10/28 13:40:30;;;;;;;16.45;5.95;;;;;;;;;;5070182;28;20036;-65
2022/10/28 13:42:56;;;;;;;;;;;;;;;;;;5072202;28;20041;-65
2022/10/28 13:45:40;;;;;;;21.52;7.15;;;;;;;;;;5072141;28;19970;-64
2022/10/28 13:48:27;;;;;;;16.17;6.20;;;;;;;;;;5071783;28;20040;-65
2022/10/28 13:51:13;;;;;;;23.80;6.05;;;;;;;;;;5067176;28;20055;-65
2022/10/28 13:53:42;;;;;;;17.48;5.95;;;;;;;;;;5070587;28;20032;-65
2022/10/28 13:56:17;;;;;;;14.02;5.40;;;;;;;;;;5070814;28;20055;-64
2022/10/28 13:58:54;;;;;;;16.00;5.53;;;;;;;;;;5071538;28;20364;-64
2022/10/28 14:01:47;;;;;;;18.45;5.90;;;;;;;;;;5071978;28;20033;-64
2022/10/28 14:04:19;;;;;;;15.68;5.80;;;;;;;;;;5071749;28;20072;-64
2022/10/28 14:06:45;;;;;;;15.02;5.15;;;;;;;;;;5052960;28;20037;-64
2022/10/28 14:09:27;;;;;;;15.82;5.57;;;;;;;;;;5071614;28;20658;-64
2022/10/28 14:12:13;;;;;;;25.98;6.20;;;;;;;;;;5070113;28;20459;-64
2022/10/28 14:14:50;;;;;;;15.45;5.65;;;;;;;;;;5071192;28;20049;-64
2022/10/28 14:17:21;;;;;;;14.00;5.18;;;;;;;;;;5070073;28;20047;-64
2022/10/28 14:19:49;;;;;;;20.50;5.70;;;;;;;;;;5069735;28;20075;-64
2022/10/28 14:22:25;;;;;;;22.70;5.57;;;;;;;;;;5070053;28;20040;-64
2022/10/28 14:24:52;;;;;;;19.92;4.57;;;;;;;;;;5071455;28;20111;-64
2022/10/28 14:27:19;;;;;;;18.38;5.60;;;;;;;;;;5069425;28;20392;-64
2022/10/28 14:29:45;;;;;;;19.48;5.40;;;;;;;;;;5071423;28;20463;-64
2022/10/28 14:32:30;;;;;;;19.33;5.47;;;;;;;;;;5089466;28;20037;-64
2022/10/28 14:35:01;;;;;;;16.40;5.28;;;;;;;;;;5082507;28;20116;-64
2022/10/28 14:37:46;;;;;;;18.98;5.50;;;;;;;;;;5083613;28;20405;-64
2022/10/28 14:40:31;;;;;;;17.80;5.75;;;;;;;;;;5051305;28;20072;-64